Saint Charles, Michigan
Current Conditions -  °F | °C
As of 12:53 PM on Thursday 18 Dec 2014 (Local Time) from KMBS Reporting Station
Overcast Overcast  
Wind Chill: 24°   Ceiling: 1100
Heat Index: 30°   Visibility: 10mi
Dew Point: 24°   Wind: 6mph
Humidity: 79%   Direction: 10°N
Pressure: 30.19"   Gusts: NA
Location:  43.3°N, 84.14°W
Report Text: KMBS 181753Z 01005KT 10SM OVC011 M01/M04 A3019 RMK AO2 SLP230 T10111044 10000 21011 58005
Loading
Personal Weather Stations






























Interactive Weather Map New forecast layout! Learn more

10-Day Weather Forecast

Advertisements
Track Severe Weather on mobile